Bruck, Austria

3:29 PM CEST on May 06, 2015 (GMT +0200)
Wiedenberg | | Change Station
CLOSE
Current Station
Personal Weather Station
Location: Mürzgraben, STEIERMARK
Elevation: 1900 ft
Nearby Weather Stations
Active Advisory: Thunderstorms deutsch:

Elev 1900 ft 47.49 °N, 15.39 °E | Updated 4 minutes ago

Mostly Cloudy
Mostly Cloudy
52.7 °F
Feels Like 52.7 °F
N
0.7
Wind Variable Wind from NW
Gusts 3.1 mph

Today
High -- | Low -- °F
--% Chance of Precip.
Yesterday
High -- | Low -- °F
Precip. -- in
5:35 AM 8:16 PM
Waning Gibbous, 94% visible
Pressure 29.83 in
Visibility 18.6 miles
Clouds Scattered Clouds 6000 ft
Few 6000 ft
Mostly Cloudy 25000 ft
Dew Point 21 °F
Humidity 18%
Rainfall 0.41 in
Snow Depth Not available.
UV 4 out of 12
Pollen Not available.
Air Quality Not available.
Flu Activity Not available.
METAR LOXZ 061320Z 26011KT 30KM SCT060CU FEW060CB BKN250CI 23/10 Q1010 TEMPO 32015G25KT 4000 -TSRA RMK CB N/BKN

More Conditions Fewer Conditions

Pressure 29.83 in
Visibility 18.6 miles
Clouds Scattered Clouds 6000 ft
Few 6000 ft
Mostly Cloudy 25000 ft
Dew Point 21 °F
Humidity 18%
Rainfall 0.41 in
Snow Depth Not available.
UV 4 out of 12
Pollen Not available.
Air Quality Not available.
Flu Activity Not available.
METAR LOXZ 061320Z 26011KT 30KM SCT060CU FEW060CB BKN250CI 23/10 Q1010 TEMPO 32015G25KT 4000 -TSRA RMK CB N/BKN

More Conditions Fewer Conditions

10-Day Weather Forecast

Almanac

Astronomy

May. 06, 2015 Rise Set
Actual Time
Civil Twilight
Nautical Twilight
Astronomical Twilight
Moon
Length of Visible Light
Length of Day
Tomorrow will be .
, % of the Moon is Illuminated

Today's Extremes

Country Highs Country Lows

Community

WunderPhotos

Upload Photos

1,818,894 photos uploaded!

WunderBlogs® & News

Nearby

Air Quality

  Air Quality AQ Index Pollutant
Not available.

Snow Depth

Station Depth Elevation

Earthquake Activity

City Distance Mag. Time & Date
Minimum magnitude displayed is 2.5.

Coastal Water Temperatures

Place Temperature

Stations

Nearby Weather Stations

Station Location Temp. Windchill Dew Point Humidity Wind Precip. Elev Updated Type